createdAt,value
2018-05-06T00:02:10.955Z,21.40
2018-05-06T00:04:39.997Z,21.40
2018-05-06T00:07:08.387Z,21.40
2018-05-06T00:09:36.649Z,21.30
2018-05-06T00:12:04.922Z,21.40
2018-05-06T00:14:33.235Z,21.30
2018-05-06T00:17:01.581Z,21.30
2018-05-06T00:19:29.976Z,21.30
2018-05-06T00:21:58.333Z,21.40
2018-05-06T00:24:26.775Z,21.30
2018-05-06T00:26:55.032Z,21.30
2018-05-06T00:29:23.494Z,21.30
2018-05-06T00:31:51.757Z,21.30
2018-05-06T00:34:20.245Z,21.30
2018-05-06T00:36:48.659Z,21.30
2018-05-06T00:39:17.176Z,21.30
2018-05-06T00:41:45.438Z,21.30
2018-05-06T00:44:14.062Z,21.30
2018-05-06T00:46:42.454Z,21.30
2018-05-06T00:49:10.734Z,21.30
2018-05-06T00:51:39.801Z,21.30
2018-05-06T00:54:19.874Z,21.30
2018-05-06T00:56:48.150Z,21.30
2018-05-06T00:59:16.427Z,21.30
2018-05-06T01:01:45.274Z,21.30
2018-05-06T01:04:14.302Z,21.30
2018-05-06T01:06:42.633Z,21.30
2018-05-06T01:09:11.195Z,21.30
2018-05-06T01:11:39.449Z,21.30
2018-05-06T01:14:08.127Z,21.30
2018-05-06T01:16:36.514Z,21.30
2018-05-06T01:19:04.791Z,21.30
2018-05-06T01:21:33.570Z,21.30
2018-05-06T01:24:01.984Z,21.30
2018-05-06T01:26:30.350Z,21.20
2018-05-06T01:28:58.706Z,21.20
2018-05-06T01:31:27.366Z,21.20
2018-05-06T01:33:55.714Z,21.20
2018-05-06T01:36:24.003Z,21.20
2018-05-06T01:38:52.474Z,21.20
2018-05-06T01:41:20.914Z,21.20
2018-05-06T01:43:49.298Z,21.20
2018-05-06T01:46:17.630Z,21.20
2018-05-06T01:48:46.682Z,21.20
2018-05-06T01:51:15.101Z,21.20
2018-05-06T01:53:43.371Z,21.20
2018-05-06T01:56:11.756Z,21.20
2018-05-06T01:58:40.789Z,21.20
2018-05-06T02:01:09.133Z,21.20
2018-05-06T02:03:37.304Z,21.20
2018-05-06T02:06:05.667Z,21.20
2018-05-06T02:08:33.993Z,21.20
2018-05-06T02:11:02.427Z,21.20
2018-05-06T02:13:30.778Z,21.20
2018-05-06T02:15:59.093Z,21.10
2018-05-06T02:18:27.561Z,21.20
2018-05-06T02:20:55.844Z,21.20
2018-05-06T02:23:24.270Z,21.20
2018-05-06T02:25:52.654Z,21.20
2018-05-06T02:28:21.346Z,21.20
2018-05-06T02:30:49.730Z,21.10
2018-05-06T02:33:18.070Z,21.20
2018-05-06T02:35:46.423Z,21.20
2018-05-06T02:38:15.095Z,21.10
2018-05-06T02:40:43.368Z,21.10
2018-05-06T02:43:11.922Z,21.10
2018-05-06T02:45:40.309Z,21.10
2018-05-06T02:48:08.570Z,21.10
2018-05-06T02:50:36.866Z,21.10
2018-05-06T02:53:05.440Z,21.10
2018-05-06T02:55:34.439Z,21.10
2018-05-06T02:58:02.801Z,21.10
2018-05-06T03:00:31.510Z,21.00
2018-05-06T03:02:59.915Z,21.10
2018-05-06T03:05:28.257Z,21.10
2018-05-06T03:07:56.906Z,21.10
2018-05-06T03:10:25.570Z,21.00
2018-05-06T03:12:54.021Z,21.00
2018-05-06T03:15:22.334Z,21.00
2018-05-06T03:17:51.073Z,21.00
2018-05-06T03:20:19.498Z,21.00
2018-05-06T03:22:47.780Z,21.00
2018-05-06T03:25:16.163Z,21.00
2018-05-06T03:27:44.426Z,21.00
2018-05-06T03:30:12.803Z,21.00
2018-05-06T03:32:41.058Z,20.90
2018-05-06T03:35:09.468Z,20.90
2018-05-06T03:37:37.705Z,21.00
2018-05-06T03:40:06.428Z,21.00
2018-05-06T03:42:34.872Z,21.00
2018-05-06T03:45:03.189Z,21.00
2018-05-06T03:47:31.625Z,21.00
2018-05-06T03:50:00.015Z,21.00
2018-05-06T03:52:28.357Z,21.00
2018-05-06T03:54:57.021Z,21.00
2018-05-06T03:57:38.037Z,21.00
2018-05-06T04:00:18.459Z,20.90
2018-05-06T04:02:46.783Z,21.00
2018-05-06T04:05:15.035Z,20.90
2018-05-06T04:07:43.478Z,21.00
2018-05-06T04:10:11.852Z,21.00
2018-05-06T04:12:40.261Z,21.00
2018-05-06T04:15:08.926Z,21.00
2018-05-06T04:17:37.375Z,21.10
2018-05-06T04:20:05.699Z,21.10
2018-05-06T04:22:34.147Z,21.10
2018-05-06T04:25:02.518Z,21.10
2018-05-06T04:27:30.898Z,21.10
2018-05-06T04:29:59.165Z,21.10
2018-05-06T04:32:28.246Z,21.20
2018-05-06T04:34:56.636Z,21.10
2018-05-06T04:37:25.266Z,21.20
2018-05-06T04:39:53.711Z,21.20
2018-05-06T04:42:22.063Z,21.10
2018-05-06T04:44:50.795Z,21.20
2018-05-06T04:47:19.443Z,21.20
2018-05-06T04:49:47.916Z,21.10
2018-05-06T04:52:16.186Z,21.10
2018-05-06T04:54:44.829Z,21.10
2018-05-06T04:57:13.575Z,21.10
2018-05-06T04:59:42.171Z,21.10
2018-05-06T05:02:10.583Z,21.10
2018-05-06T05:04:39.040Z,21.10
2018-05-06T05:07:07.393Z,21.10
2018-05-06T05:09:36.179Z,21.10
2018-05-06T05:12:04.485Z,21.10
2018-05-06T05:14:32.791Z,21.00
2018-05-06T05:17:01.045Z,21.10
2018-05-06T05:19:29.305Z,21.10
2018-05-06T05:21:57.802Z,21.20
2018-05-06T05:24:26.489Z,21.20
2018-05-06T05:26:54.761Z,21.20
2018-05-06T05:29:23.427Z,21.20
2018-05-06T05:31:52.166Z,21.20
2018-05-06T05:34:22.813Z,21.20
2018-05-06T05:36:51.071Z,21.20
2018-05-06T05:39:19.363Z,21.20
2018-05-06T05:41:50.075Z,21.20
2018-05-06T05:44:18.932Z,21.20
2018-05-06T05:46:47.194Z,21.20
2018-05-06T05:49:16.160Z,21.10
2018-05-06T05:51:44.506Z,21.20
2018-05-06T05:54:12.774Z,21.10
2018-05-06T05:56:42.171Z,21.20
2018-05-06T05:59:24.699Z,21.20
2018-05-06T06:01:56.153Z,21.20
2018-05-06T06:04:24.847Z,21.20
2018-05-06T06:06:57.067Z,21.20
2018-05-06T06:09:27.282Z,21.20
2018-05-06T06:11:56.618Z,21.30
2018-05-06T06:14:25.891Z,21.30
2018-05-06T06:16:54.222Z,21.30
2018-05-06T06:19:23.840Z,21.40
2018-05-06T06:21:52.291Z,21.50
2018-05-06T06:24:20.915Z,21.50
2018-05-06T06:26:49.574Z,21.60
2018-05-06T06:29:18.624Z,21.50
2018-05-06T06:31:47.041Z,21.50
2018-05-06T06:34:16.080Z,21.60
2018-05-06T06:36:44.349Z,21.60
2018-05-06T06:39:12.782Z,21.60
2018-05-06T06:41:41.146Z,21.60
2018-05-06T06:44:09.526Z,21.60
2018-05-06T06:46:37.931Z,21.60
2018-05-06T06:49:06.191Z,21.60
2018-05-06T06:51:34.598Z,21.50
2018-05-06T06:54:03.633Z,21.30
2018-05-06T06:56:31.905Z,21.30
2018-05-06T06:59:00.393Z,21.30
2018-05-06T07:01:28.773Z,21.30
2018-05-06T07:03:57.055Z,21.30
2018-05-06T07:06:25.580Z,21.20
2018-05-06T07:08:53.967Z,21.20
2018-05-06T07:11:22.355Z,21.30
2018-05-06T07:13:50.622Z,21.30
2018-05-06T07:16:19.034Z,21.30
2018-05-06T07:18:47.707Z,21.30
2018-05-06T07:21:17.002Z,21.10
2018-05-06T07:23:45.358Z,21.10
2018-05-06T07:26:13.835Z,21.00
2018-05-06T07:28:42.110Z,21.00
2018-05-06T07:31:10.823Z,21.00
2018-05-06T07:33:39.265Z,20.90
2018-05-06T07:36:07.557Z,21.00
2018-05-06T07:38:39.199Z,21.00
2018-05-06T07:41:07.474Z,21.00
2018-05-06T07:43:35.750Z,21.10
2018-05-06T07:46:04.230Z,21.20
2018-05-06T07:48:32.585Z,21.30
2018-05-06T07:51:00.850Z,21.40
2018-05-06T07:53:29.524Z,21.40
2018-05-06T07:55:57.830Z,21.40
2018-05-06T07:58:26.115Z,21.50
2018-05-06T08:00:54.433Z,21.50
2018-05-06T08:03:23.480Z,21.50
2018-05-06T08:05:51.746Z,21.50
2018-05-06T08:08:20.202Z,21.50
2018-05-06T08:10:48.659Z,21.50
2018-05-06T08:13:16.960Z,21.50
2018-05-06T08:15:45.378Z,21.60
2018-05-06T08:18:13.900Z,21.60
2018-05-06T08:20:42.362Z,21.50
2018-05-06T08:23:10.762Z,21.50
2018-05-06T08:25:39.209Z,21.50
2018-05-06T08:28:07.534Z,21.50
2018-05-06T08:30:36.872Z,21.50
2018-05-06T08:33:05.154Z,21.50
2018-05-06T08:35:33.674Z,21.50
2018-05-06T08:38:01.961Z,21.50
2018-05-06T08:40:30.646Z,21.50
2018-05-06T08:42:59.026Z,21.50
2018-05-06T08:45:27.504Z,21.50
2018-05-06T08:47:55.862Z,21.50
2018-05-06T08:50:24.531Z,21.40
2018-05-06T08:52:53.210Z,21.50
2018-05-06T08:55:21.619Z,21.50
2018-05-06T08:57:49.919Z,21.50
2018-05-06T09:00:18.387Z,21.50
2018-05-06T09:02:46.998Z,21.60
2018-05-06T09:05:16.047Z,21.70
2018-05-06T09:07:44.353Z,21.70
2018-05-06T09:10:12.736Z,21.70
2018-05-06T09:12:41.007Z,21.70
2018-05-06T09:15:09.541Z,21.80
2018-05-06T09:17:37.940Z,21.80
2018-05-06T09:20:06.264Z,21.80
2018-05-06T09:22:34.687Z,21.80
2018-05-06T09:25:02.998Z,21.80
2018-05-06T09:27:31.418Z,21.80
2018-05-06T09:29:59.878Z,21.70
2018-05-06T09:32:28.326Z,21.70
2018-05-06T09:34:56.882Z,21.60
2018-05-06T09:37:25.314Z,21.60
2018-05-06T09:39:54.519Z,21.60
2018-05-06T09:42:23.555Z,21.60
2018-05-06T09:44:51.994Z,21.60
2018-05-06T09:47:20.347Z,21.60
2018-05-06T09:49:48.622Z,21.60
2018-05-06T09:52:17.114Z,21.60
2018-05-06T09:54:45.471Z,21.60
2018-05-06T09:57:13.745Z,21.70
2018-05-06T09:59:42.149Z,21.70
2018-05-06T10:02:10.558Z,21.70
2018-05-06T10:04:38.834Z,21.70
2018-05-06T10:07:07.356Z,21.80
2018-05-06T10:09:35.985Z,21.70
2018-05-06T10:12:05.329Z,21.50
2018-05-06T10:14:33.731Z,21.50
2018-05-06T10:17:02.238Z,21.50
2018-05-06T10:19:30.499Z,21.60
2018-05-06T10:21:58.778Z,21.50
2018-05-06T10:24:27.041Z,21.50
2018-05-06T10:26:55.393Z,21.40
2018-05-06T10:29:23.665Z,21.50
2018-05-06T10:31:51.938Z,21.60
2018-05-06T10:34:20.207Z,21.70
2018-05-06T10:36:48.514Z,21.70
2018-05-06T10:39:16.893Z,21.80
2018-05-06T10:41:45.257Z,21.90
2018-05-06T10:44:13.590Z,21.90
2018-05-06T10:46:42.054Z,22.00
2018-05-06T10:49:10.483Z,22.10
2018-05-06T10:51:38.709Z,22.00
2018-05-06T10:54:07.171Z,22.00
2018-05-06T10:56:35.568Z,22.00
2018-05-06T10:59:03.834Z,22.10
2018-05-06T11:01:32.345Z,22.20
2018-05-06T11:04:01.626Z,22.30
2018-05-06T11:06:30.019Z,22.20
2018-05-06T11:08:58.273Z,22.30
2018-05-06T11:11:26.862Z,22.30
2018-05-06T11:13:55.134Z,22.30
2018-05-06T11:16:23.808Z,22.30
2018-05-06T11:18:52.220Z,22.30
2018-05-06T11:21:20.571Z,22.30
2018-05-06T11:23:48.949Z,22.30
2018-05-06T11:26:17.323Z,22.30
2018-05-06T11:28:45.497Z,22.30
2018-05-06T11:31:13.763Z,22.30
2018-05-06T11:33:42.104Z,22.30
2018-05-06T11:36:10.488Z,22.30
2018-05-06T11:38:38.934Z,22.30
2018-05-06T11:41:07.253Z,22.20
2018-05-06T11:43:35.984Z,22.20
2018-05-06T11:46:04.367Z,22.10
2018-05-06T11:48:32.700Z,22.10
2018-05-06T11:51:17.752Z,22.00
2018-05-06T11:54:00.272Z,22.00
2018-05-06T11:56:34.219Z,21.90
2018-05-06T11:59:03.879Z,21.90
2018-05-06T12:01:32.567Z,21.90
2018-05-06T12:04:00.829Z,21.90
2018-05-06T12:06:29.145Z,21.90
2018-05-06T12:08:58.306Z,21.90
2018-05-06T12:11:26.558Z,21.90
2018-05-06T12:13:54.923Z,21.90
2018-05-06T12:16:23.620Z,21.90
2018-05-06T12:18:52.008Z,21.90
2018-05-06T12:21:21.172Z,21.90
2018-05-06T12:23:49.437Z,21.70
2018-05-06T12:26:18.051Z,21.60
2018-05-06T12:28:47.342Z,21.60
2018-05-06T12:31:15.726Z,21.60
2018-05-06T12:33:44.019Z,21.50
2018-05-06T12:36:12.506Z,21.60
2018-05-06T12:38:40.810Z,21.60
2018-05-06T12:41:09.245Z,21.70
2018-05-06T12:43:37.520Z,21.90
2018-05-06T12:46:05.787Z,22.10
2018-05-06T12:48:34.088Z,22.30
2018-05-06T12:51:02.459Z,22.40
2018-05-06T12:53:31.447Z,22.50
2018-05-06T12:55:59.718Z,22.50
2018-05-06T12:58:28.235Z,22.60
2018-05-06T13:00:56.626Z,22.60
2018-05-06T13:03:24.986Z,22.60
2018-05-06T13:05:53.362Z,22.60
2018-05-06T13:08:21.623Z,22.50
2018-05-06T13:10:49.942Z,22.50
2018-05-06T13:13:18.478Z,22.50
2018-05-06T13:15:46.870Z,22.50
2018-05-06T13:18:15.290Z,22.50
2018-05-06T13:20:43.882Z,22.60
2018-05-06T13:23:12.610Z,22.60
2018-05-06T13:25:40.970Z,22.60
2018-05-06T13:28:09.271Z,22.60
2018-05-06T13:30:37.515Z,22.60
2018-05-06T13:33:05.835Z,22.60
2018-05-06T13:35:34.153Z,22.60
2018-05-06T13:38:02.820Z,22.60
2018-05-06T13:40:31.096Z,22.60
2018-05-06T13:42:59.646Z,22.60
2018-05-06T13:45:28.064Z,22.60
2018-05-06T13:47:56.350Z,22.60
2018-05-06T13:50:24.804Z,22.60
2018-05-06T13:52:53.237Z,22.60
2018-05-06T13:55:21.818Z,22.50
2018-05-06T13:57:50.086Z,22.40
2018-05-06T14:00:18.556Z,22.40
2018-05-06T14:02:47.015Z,22.40
2018-05-06T14:05:15.266Z,22.50
2018-05-06T14:07:43.746Z,22.50
2018-05-06T14:10:12.135Z,22.50
2018-05-06T14:12:40.497Z,22.50
2018-05-06T14:15:08.775Z,22.60
2018-05-06T14:17:37.262Z,22.60
2018-05-06T14:20:05.630Z,22.60
2018-05-06T14:22:34.025Z,22.60
2018-05-06T14:25:02.354Z,22.60
2018-05-06T14:27:31.398Z,22.50
2018-05-06T14:29:59.793Z,22.50
2018-05-06T14:32:28.119Z,22.50
2018-05-06T14:34:56.519Z,22.40
2018-05-06T14:37:24.909Z,22.40
2018-05-06T14:39:53.165Z,22.30
2018-05-06T14:42:21.673Z,22.30
2018-05-06T14:44:49.989Z,22.30
2018-05-06T14:47:30.253Z,22.30
2018-05-06T14:49:58.777Z,22.30
2018-05-06T14:52:27.181Z,22.20
2018-05-06T14:54:55.542Z,22.20
2018-05-06T14:57:23.914Z,22.20
2018-05-06T14:59:52.271Z,22.20
2018-05-06T15:02:20.683Z,22.20
2018-05-06T15:04:49.100Z,22.20
2018-05-06T15:07:17.458Z,22.20
2018-05-06T15:09:45.766Z,22.20
2018-05-06T15:12:14.212Z,22.20
2018-05-06T15:14:42.620Z,22.20
2018-05-06T15:17:10.959Z,22.20
2018-05-06T15:19:39.629Z,22.20
2018-05-06T15:22:08.015Z,22.20
2018-05-06T15:24:36.389Z,22.20
2018-05-06T15:27:04.663Z,22.20
2018-05-06T15:29:33.110Z,22.20
2018-05-06T15:32:01.542Z,22.20
2018-05-06T15:34:29.865Z,22.20
2018-05-06T15:36:58.594Z,22.20
2018-05-06T15:39:26.870Z,22.30
2018-05-06T15:41:55.967Z,22.30
2018-05-06T15:44:24.293Z,22.30
2018-05-06T15:46:52.737Z,22.40
2018-05-06T15:49:20.996Z,22.40
2018-05-06T15:51:49.461Z,22.40
2018-05-06T15:54:17.890Z,22.50
2018-05-06T15:56:46.275Z,22.50
2018-05-06T15:59:14.835Z,22.60
2018-05-06T16:01:43.606Z,22.60
2018-05-06T16:04:14.996Z,22.60
2018-05-06T16:06:43.255Z,22.70
2018-05-06T16:09:11.535Z,22.70
2018-05-06T16:11:39.789Z,22.80
2018-05-06T16:14:08.601Z,22.80
2018-05-06T16:16:37.278Z,22.90
2018-05-06T16:19:05.538Z,22.90
2018-05-06T16:21:33.991Z,22.90
2018-05-06T16:24:02.418Z,22.90
2018-05-06T16:26:30.777Z,22.90
2018-05-06T16:28:58.993Z,22.90
2018-05-06T16:31:27.255Z,22.90
2018-05-06T16:33:55.540Z,22.90
2018-05-06T16:36:23.802Z,22.90
2018-05-06T16:38:52.069Z,23.00
2018-05-06T16:41:20.452Z,23.00
2018-05-06T16:43:49.009Z,23.00
2018-05-06T16:46:17.502Z,23.00
2018-05-06T16:48:45.891Z,23.10
2018-05-06T16:51:14.267Z,23.10
2018-05-06T16:53:42.535Z,23.10
2018-05-06T16:56:10.823Z,23.10
2018-05-06T16:58:39.241Z,23.10
2018-05-06T17:01:07.477Z,23.10
2018-05-06T17:03:35.870Z,23.10
2018-05-06T17:06:04.249Z,23.20
2018-05-06T17:08:32.531Z,23.20
2018-05-06T17:11:01.279Z,23.20
2018-05-06T17:13:29.707Z,23.20
2018-05-06T17:15:58.122Z,23.10
2018-05-06T17:18:26.406Z,23.10
2018-05-06T17:20:55.429Z,23.10
2018-05-06T17:23:23.851Z,23.10
2018-05-06T17:25:52.190Z,23.10
2018-05-06T17:28:20.586Z,23.00
2018-05-06T17:30:48.873Z,23.10
2018-05-06T17:33:17.630Z,23.10
2018-05-06T17:35:59.111Z,23.10
2018-05-06T17:38:28.029Z,23.00
2018-05-06T17:40:56.564Z,23.00
2018-05-06T17:43:28.437Z,23.00
2018-05-06T17:45:56.731Z,23.00
2018-05-06T17:48:25.104Z,23.00
2018-05-06T17:50:53.639Z,23.00
2018-05-06T17:53:22.203Z,23.00
2018-05-06T17:55:50.508Z,23.00
2018-05-06T17:58:19.862Z,22.90
2018-05-06T18:00:48.177Z,22.90
2018-05-06T18:03:16.447Z,22.90
2018-05-06T18:05:45.024Z,22.90
2018-05-06T18:08:13.422Z,22.90
2018-05-06T18:10:41.697Z,22.90
2018-05-06T18:13:10.444Z,22.90
2018-05-06T18:15:39.126Z,22.90
2018-05-06T18:18:07.422Z,22.90
2018-05-06T18:20:35.716Z,23.00
2018-05-06T18:23:04.210Z,23.00
2018-05-06T18:25:32.706Z,23.00
2018-05-06T18:28:00.999Z,23.10
2018-05-06T18:30:29.398Z,23.10
2018-05-06T18:32:58.482Z,23.10
2018-05-06T18:35:26.764Z,23.10
2018-05-06T18:37:55.153Z,23.10
2018-05-06T18:40:23.465Z,23.00
2018-05-06T18:42:51.831Z,23.00
2018-05-06T18:45:20.130Z,23.00
2018-05-06T18:47:48.396Z,23.00
2018-05-06T18:50:16.759Z,23.00
2018-05-06T18:52:45.122Z,23.00
2018-05-06T18:55:13.570Z,23.00
2018-05-06T18:57:41.866Z,23.00
2018-05-06T19:00:10.310Z,23.00
2018-05-06T19:02:38.588Z,23.00
2018-05-06T19:05:07.626Z,23.00
2018-05-06T19:07:35.962Z,23.00
2018-05-06T19:10:05.001Z,22.90
2018-05-06T19:12:33.728Z,22.90
2018-05-06T19:15:02.212Z,22.90
2018-05-06T19:17:30.509Z,22.90
2018-05-06T19:19:58.834Z,22.90
2018-05-06T19:22:27.159Z,22.90
2018-05-06T19:24:56.206Z,22.90
2018-05-06T19:27:24.525Z,22.90
2018-05-06T19:29:52.988Z,22.90
2018-05-06T19:32:22.034Z,22.90
2018-05-06T19:34:50.643Z,22.90
2018-05-06T19:37:19.274Z,22.90
2018-05-06T19:39:47.736Z,22.80
2018-05-06T19:42:16.091Z,22.70
2018-05-06T19:44:44.491Z,22.60
2018-05-06T19:47:12.818Z,22.60
2018-05-06T19:49:41.111Z,22.60
2018-05-06T19:52:09.622Z,22.60
2018-05-06T19:54:38.018Z,22.60
2018-05-06T19:57:07.910Z,22.60
2018-05-06T19:59:36.214Z,22.60
2018-05-06T20:02:04.478Z,22.60
2018-05-06T20:04:32.755Z,22.60
2018-05-06T20:07:01.799Z,22.70
2018-05-06T20:09:30.114Z,22.70
2018-05-06T20:11:58.472Z,22.60
2018-05-06T20:14:26.760Z,22.60
2018-05-06T20:16:55.064Z,22.60
2018-05-06T20:19:23.342Z,22.60
2018-05-06T20:21:51.954Z,22.70
2018-05-06T20:24:20.380Z,22.60
2018-05-06T20:26:48.787Z,22.60
2018-05-06T20:29:17.102Z,22.60
2018-05-06T20:31:45.457Z,22.60
2018-05-06T20:34:14.494Z,22.60
2018-05-06T20:36:42.833Z,22.60
2018-05-06T20:39:11.869Z,22.60
2018-05-06T20:41:40.518Z,22.60
2018-05-06T20:44:09.863Z,22.60
2018-05-06T20:46:38.173Z,22.60
2018-05-06T20:49:06.624Z,22.60
2018-05-06T20:51:34.923Z,22.60
2018-05-06T20:54:03.639Z,22.60
2018-05-06T20:56:32.718Z,22.60
2018-05-06T20:59:00.978Z,22.50
2018-05-06T21:01:29.267Z,22.50
2018-05-06T21:03:57.921Z,22.50
2018-05-06T21:06:26.194Z,22.50
2018-05-06T21:08:54.818Z,22.50
2018-05-06T21:11:23.262Z,22.50
2018-05-06T21:13:51.922Z,22.50
2018-05-06T21:16:20.297Z,22.50
2018-05-06T21:18:49.329Z,22.50
2018-05-06T21:21:17.729Z,22.50
2018-05-06T21:23:46.026Z,22.50
2018-05-06T21:26:14.308Z,22.50
2018-05-06T21:28:42.782Z,22.50
2018-05-06T21:31:11.258Z,22.50
2018-05-06T21:33:39.527Z,22.50
2018-05-06T21:36:07.816Z,22.50
2018-05-06T21:38:36.070Z,22.50
2018-05-06T21:41:04.404Z,22.50
2018-05-06T21:43:32.852Z,22.50
2018-05-06T21:46:01.086Z,22.50
2018-05-06T21:48:29.348Z,22.50
2018-05-06T21:50:57.661Z,22.50
2018-05-06T21:53:25.959Z,22.50
2018-05-06T21:55:55.008Z,22.50
2018-05-06T21:58:24.618Z,22.50
2018-05-06T22:00:53.013Z,22.50
2018-05-06T22:03:21.419Z,22.50
2018-05-06T22:05:49.762Z,22.50
2018-05-06T22:08:18.438Z,22.50
2018-05-06T22:10:46.856Z,22.50
2018-05-06T22:13:15.142Z,22.50
2018-05-06T22:15:43.821Z,22.50
2018-05-06T22:18:12.577Z,22.50
2018-05-06T22:20:40.990Z,22.50
2018-05-06T22:23:09.340Z,22.50
2018-05-06T22:25:37.690Z,22.40
2018-05-06T22:28:06.018Z,22.40
2018-05-06T22:30:34.486Z,22.40
2018-05-06T22:33:02.855Z,22.40
2018-05-06T22:35:31.186Z,22.40
2018-05-06T22:38:00.223Z,22.40
2018-05-06T22:40:28.527Z,22.40
2018-05-06T22:42:57.757Z,22.40
2018-05-06T22:45:26.252Z,22.40
2018-05-06T22:47:54.595Z,22.40
2018-05-06T22:50:22.975Z,22.40
2018-05-06T22:52:51.406Z,22.30
2018-05-06T22:55:19.739Z,22.30
2018-05-06T22:57:48.194Z,22.30
2018-05-06T23:00:16.485Z,22.30
2018-05-06T23:02:44.959Z,22.30
2018-05-06T23:05:13.313Z,22.30
2018-05-06T23:07:41.925Z,22.30
2018-05-06T23:10:10.390Z,22.30
2018-05-06T23:12:38.694Z,22.30
2018-05-06T23:15:07.551Z,22.30
2018-05-06T23:17:35.816Z,22.30
2018-05-06T23:20:04.210Z,22.30
2018-05-06T23:22:32.597Z,22.30
2018-05-06T23:25:00.888Z,22.30
2018-05-06T23:27:29.175Z,22.30
2018-05-06T23:29:57.587Z,22.30
2018-05-06T23:32:25.807Z,22.30
2018-05-06T23:34:54.091Z,22.30
2018-05-06T23:37:22.554Z,22.30
2018-05-06T23:39:50.900Z,22.30
2018-05-06T23:42:19.349Z,22.30
2018-05-06T23:44:47.626Z,22.30
2018-05-06T23:47:16.074Z,22.30
2018-05-06T23:49:44.828Z,22.30
2018-05-06T23:52:13.126Z,22.20
2018-05-06T23:54:41.562Z,22.20
2018-05-06T23:57:09.908Z,22.20
2018-05-06T23:59:38.270Z,22.20
